Terminal Aerodrome Forecast
Issued by NWS

Home | Current Version | Previous Version | Text Only | Print | Product List | Glossary On
Versions: 1 2 3 4 5 6 7 8 9 10 11 12 13 14 15 16 17 18 19 20 21
000
FTUS43 KLSX 210537
TAFSUS
TAF
KSUS 210537Z 2106/2206 VRB04KT 6SM -SHRA OVC050
     FM210800 VRB04KT 5SM -SHRA BR OVC040
     FM211200 VRB04KT 4SM BR OVC020
     FM211600 05005KT P6SM BKN030
     FM220000 VRB04KT P6SM BKN040=

USA.gov is the U.S. government's official web portal to all federal, state and local government web resources and services.